Foveran, United Kingdom
Current Conditions -  °F | °C
As of 3:20 AM on Friday 19 Dec 2014 (Local Time) from EGPD Reporting Station
Clear Clear  
Wind Chill:   Ceiling: Unl
Heat Index:   Visibility: 6mi
Dew Point: -1°   Wind: 7mph
Humidity: 75%   Direction: 230°SW
Pressure: 29.35"   Gusts: NA
Location:  57.31°N, 2.04°W
Report Text: EGPD 190320Z AUTO 23006KT 9999 NCD 03/M01 Q0994
Loading
Personal Weather Stations






























Interactive Weather Map New forecast layout! Learn more

10-Day Weather Forecast

Advertisements
Track Severe Weather on mobile